createdAt,value
2022-10-12T00:00:00.328Z,14.10
2022-10-12T00:02:22.421Z,14.18
2022-10-12T00:04:47.178Z,13.96
2022-10-12T00:07:09.140Z,13.93
2022-10-12T00:09:32.203Z,14.10
2022-10-12T00:11:54.203Z,14.09
2022-10-12T00:14:16.154Z,13.89
2022-10-12T00:16:39.584Z,13.93
2022-10-12T00:19:01.723Z,13.90
2022-10-12T00:21:25.258Z,13.92
2022-10-12T00:23:49.827Z,13.73
2022-10-12T00:26:15.699Z,13.83
2022-10-12T00:28:38.159Z,13.73
2022-10-12T00:31:02.067Z,13.50
2022-10-12T00:33:24.407Z,13.17
2022-10-12T00:35:46.450Z,13.51
2022-10-12T00:38:10.697Z,13.68
2022-10-12T00:40:32.688Z,13.84
2022-10-12T00:42:56.256Z,13.61
2022-10-12T00:45:18.409Z,13.69
2022-10-12T00:47:44.921Z,13.69
2022-10-12T00:50:13.848Z,13.68
2022-10-12T00:52:47.044Z,13.59
2022-10-12T00:55:15.277Z,13.67
2022-10-12T00:57:37.720Z,13.40
2022-10-12T01:00:05.267Z,13.40
2022-10-12T01:02:29.816Z,13.43
2022-10-12T01:04:55.387Z,13.30
2022-10-12T01:07:19.712Z,13.43
2022-10-12T01:09:42.213Z,13.29
2022-10-12T01:12:07.057Z,13.44
2022-10-12T01:14:28.961Z,13.32
2022-10-12T01:16:58.115Z,13.45
2022-10-12T01:19:57.108Z,13.35
2022-10-12T01:22:20.978Z,13.23
2022-10-12T01:24:53.827Z,13.34
2022-10-12T01:27:24.925Z,13.32
2022-10-12T01:30:08.488Z,13.18
2022-10-12T01:32:59.590Z,13.04
2022-10-12T01:35:26.555Z,13.03
2022-10-12T01:38:05.277Z,12.82
2022-10-12T01:40:36.087Z,12.66
2022-10-12T01:43:02.510Z,12.75
2022-10-12T01:45:25.617Z,12.80
2022-10-12T01:47:52.836Z,12.84
2022-10-12T01:50:17.088Z,12.65
2022-10-12T01:53:03.677Z,12.85
2022-10-12T01:55:25.733Z,12.54
2022-10-12T01:58:27.706Z,12.72
2022-10-12T02:01:42.543Z,12.64
2022-10-12T02:04:27.558Z,12.52
2022-10-12T02:07:00.137Z,12.38
2022-10-12T02:09:33.983Z,12.58
2022-10-12T02:12:00.381Z,12.41
2022-10-12T02:14:27.924Z,12.53
2022-10-12T02:17:02.619Z,12.51
2022-10-12T02:19:34.548Z,12.48
2022-10-12T02:22:02.119Z,12.54
2022-10-12T02:24:24.292Z,12.37
2022-10-12T02:26:50.452Z,12.44
2022-10-12T02:29:16.117Z,12.43
2022-10-12T02:31:39.104Z,12.32
2022-10-12T02:34:04.037Z,12.32
2022-10-12T02:36:34.503Z,12.21
2022-10-12T02:39:23.919Z,12.29
2022-10-12T02:41:51.798Z,12.36
2022-10-12T02:44:20.485Z,12.39
2022-10-12T02:46:50.411Z,12.15
2022-10-12T02:49:14.442Z,12.06
2022-10-12T02:51:37.809Z,12.16
2022-10-12T02:54:00.676Z,12.21
2022-10-12T02:56:23.482Z,12.13
2022-10-12T02:58:47.503Z,12.12
2022-10-12T03:01:12.082Z,12.05
2022-10-12T03:03:35.062Z,11.99
2022-10-12T03:05:57.015Z,12.12
2022-10-12T03:08:19.074Z,12.04
2022-10-12T03:10:40.952Z,11.91
2022-10-12T03:13:02.874Z,11.96
2022-10-12T03:15:32.414Z,11.95
2022-10-12T03:17:55.741Z,12.05
2022-10-12T03:20:17.989Z,12.01
2022-10-12T03:22:44.082Z,11.78
2022-10-12T03:25:06.313Z,11.90
2022-10-12T03:27:29.613Z,11.81
2022-10-12T03:29:52.592Z,11.62
2022-10-12T03:32:16.121Z,11.99
2022-10-12T03:34:37.998Z,11.95
2022-10-12T03:37:01.196Z,11.89
2022-10-12T03:39:23.151Z,11.83
2022-10-12T03:41:45.080Z,11.77
2022-10-12T03:44:06.954Z,11.82
2022-10-12T03:46:30.118Z,11.79
2022-10-12T03:48:52.077Z,11.88
2022-10-12T03:51:14.050Z,11.72
2022-10-12T03:53:35.986Z,11.50
2022-10-12T03:55:59.161Z,11.67
2022-10-12T03:58:24.072Z,11.70
2022-10-12T04:00:46.211Z,11.55
2022-10-12T04:03:08.130Z,11.67
2022-10-12T04:05:31.206Z,11.69
2022-10-12T04:07:53.161Z,11.64
2022-10-12T04:10:15.191Z,11.43
2022-10-12T04:12:38.473Z,11.59
2022-10-12T04:15:00.505Z,11.28
2022-10-12T04:17:22.380Z,11.28
2022-10-12T04:19:44.883Z,11.44
2022-10-12T04:22:08.338Z,11.45
2022-10-12T04:24:30.287Z,11.50
2022-10-12T04:26:52.179Z,11.41
2022-10-12T04:29:14.396Z,11.43
2022-10-12T04:31:37.432Z,11.29
2022-10-12T04:33:59.429Z,11.26
2022-10-12T04:36:21.329Z,11.32
2022-10-12T04:38:43.574Z,11.36
2022-10-12T04:41:05.919Z,10.97
2022-10-12T04:43:28.222Z,11.04
2022-10-12T04:45:59.064Z,11.07
2022-10-12T04:48:20.937Z,11.13
2022-10-12T04:50:43.211Z,10.99
2022-10-12T04:53:05.136Z,11.03
2022-10-12T04:55:27.364Z,10.99
2022-10-12T04:57:50.217Z,10.88
2022-10-12T05:00:12.615Z,10.84
2022-10-12T05:02:34.514Z,10.87
2022-10-12T05:04:56.403Z,10.86
2022-10-12T05:07:18.390Z,10.74
2022-10-12T05:09:44.480Z,10.63
2022-10-12T05:12:06.477Z,10.57
2022-10-12T05:14:31.077Z,10.54
2022-10-12T05:16:56.481Z,10.49
2022-10-12T05:19:18.335Z,10.46
2022-10-12T05:21:40.513Z,10.44
2022-10-12T05:24:02.570Z,10.47
2022-10-12T05:26:24.583Z,10.46
2022-10-12T05:28:49.070Z,10.61
2022-10-12T05:31:11.384Z,10.71
2022-10-12T05:33:33.326Z,10.40
2022-10-12T05:35:56.628Z,10.39
2022-10-12T05:38:19.196Z,10.65
2022-10-12T05:40:41.159Z,10.59
2022-10-12T05:43:03.143Z,10.42
2022-10-12T05:45:27.269Z,10.48
2022-10-12T05:47:49.156Z,10.46
2022-10-12T05:50:14.357Z,10.66
2022-10-12T05:52:36.648Z,10.32
2022-10-12T05:54:58.819Z,10.32
2022-10-12T05:57:20.730Z,10.49
2022-10-12T05:59:43.397Z,10.32
2022-10-12T06:02:05.409Z,10.37
2022-10-12T06:04:27.493Z,10.36
2022-10-12T06:06:50.628Z,10.43
2022-10-12T06:09:13.096Z,10.46
2022-10-12T06:11:36.488Z,10.62
2022-10-12T06:13:58.630Z,10.43
2022-10-12T06:16:20.575Z,10.60
2022-10-12T06:18:42.798Z,10.42
2022-10-12T06:21:28.407Z,10.47
2022-10-12T06:23:46.825Z,10.48
2022-10-12T06:26:08.924Z,10.46
2022-10-12T06:28:31.021Z,10.54
2022-10-12T06:30:54.847Z,10.47
2022-10-12T06:33:16.723Z,10.57
2022-10-12T06:35:38.774Z,10.63
2022-10-12T06:38:00.813Z,10.51
2022-10-12T06:40:22.756Z,10.58
2022-10-12T06:42:46.322Z,10.62
2022-10-12T06:45:08.606Z,10.63
2022-10-12T06:47:30.519Z,10.61
2022-10-12T06:49:53.538Z,10.47
2022-10-12T06:52:16.501Z,10.58
2022-10-12T06:54:39.361Z,10.92
2022-10-12T06:57:02.398Z,10.89
2022-10-12T06:59:25.688Z,10.95
2022-10-12T07:01:47.638Z,10.96
2022-10-12T07:04:09.626Z,10.92
2022-10-12T07:06:31.600Z,11.01
2022-10-12T07:08:55.142Z,11.14
2022-10-12T07:11:17.065Z,11.21
2022-10-12T07:13:39.103Z,11.06
2022-10-12T07:16:04.145Z,11.26
2022-10-12T07:18:26.145Z,11.23
2022-10-12T07:20:48.042Z,11.29
2022-10-12T07:23:09.895Z,11.31
2022-10-12T07:25:32.104Z,11.38
2022-10-12T07:27:55.449Z,11.47
2022-10-12T07:30:17.497Z,11.50
2022-10-12T07:32:39.370Z,11.57
2022-10-12T07:35:01.253Z,11.61
2022-10-12T07:37:24.189Z,11.80
2022-10-12T07:39:46.213Z,11.90
2022-10-12T07:42:08.313Z,11.95
2022-10-12T07:44:30.864Z,11.93
2022-10-12T07:46:52.986Z,11.92
2022-10-12T07:49:15.709Z,12.06
2022-10-12T07:51:37.605Z,12.07
